Time,TemperatureF,DewpointF,PressureIn,WindDirection,WindDirectionDegrees,WindSpeedMPH,WindSpeedGustMPH,Humidity,HourlyPrecipIn,Conditions,Clouds,dailyrainin,SoftwareType,DateUTC
2013-09-11 00:09:00,72.8,70.0,30.09,SSE,167,0.0,-999.0,90,-99.99,,,0.00,weatherlink.com 1.10,2013-09-11 04:09:00,
2013-09-11 00:24:00,72.6,70.0,30.09,SSE,167,0.0,-999.0,90,-99.99,,,0.00,weatherlink.com 1.10,2013-09-11 04:24:00,
2013-09-11 00:39:00,72.3,69.0,30.09,SSE,167,0.0,-999.0,90,-99.99,,,0.00,weatherlink.com 1.10,2013-09-11 04:39:00,
2013-09-11 00:54:00,72.0,69.0,30.09,SSE,167,0.0,-999.0,90,-99.99,,,0.00,weatherlink.com 1.10,2013-09-11 04:54:00,
2013-09-11 01:09:00,71.8,69.0,30.09,SSE,167,0.0,-999.0,91,-99.99,,,0.00,weatherlink.com 1.10,2013-09-11 05:09:00,
2013-09-11 01:24:00,71.6,69.0,30.09,SSE,167,0.0,-999.0,91,-99.99,,,0.00,weatherlink.com 1.10,2013-09-11 05:24:00,
2013-09-11 01:39:00,71.4,69.0,30.09,SSE,167,0.0,-999.0,91,-99.99,,,0.00,weatherlink.com 1.10,2013-09-11 05:39:00,
2013-09-11 01:54:00,71.3,69.0,30.08,SSE,167,0.0,-999.0,91,-99.99,,,0.00,weatherlink.com 1.10,2013-09-11 05:54:00,
2013-09-11 02:09:00,71.1,68.0,30.08,SSE,167,0.0,-999.0,91,-99.99,,,0.00,weatherlink.com 1.10,2013-09-11 06:09:00,
2013-09-11 02:24:00,70.9,68.0,30.08,SSE,167,0.0,-999.0,91,-99.99,,,0.00,weatherlink.com 1.10,2013-09-11 06:24:00,
2013-09-11 02:39:00,70.7,68.0,30.08,SSE,167,0.0,-999.0,92,-99.99,,,0.00,weatherlink.com 1.10,2013-09-11 06:39:00,
2013-09-11 02:54:00,70.5,68.0,30.07,SSE,167,0.0,-999.0,92,-99.99,,,0.00,weatherlink.com 1.10,2013-09-11 06:54:00,
2013-09-11 03:09:00,70.3,68.0,30.07,SSE,167,0.0,-999.0,92,-99.99,,,0.00,weatherlink.com 1.10,2013-09-11 07:09:00,
2013-09-11 03:24:00,70.2,68.0,30.07,SSE,167,0.0,-999.0,92,-99.99,,,0.00,weatherlink.com 1.10,2013-09-11 07:24:00,
2013-09-11 03:39:00,69.9,68.0,30.07,SSE,167,0.0,-999.0,92,-99.99,,,0.00,weatherlink.com 1.10,2013-09-11 07:39:00,
2013-09-11 03:54:00,69.7,67.0,30.07,SSE,167,0.0,-999.0,92,-99.99,,,0.00,weatherlink.com 1.10,2013-09-11 07:54:00,
2013-09-11 04:09:00,69.5,68.0,30.07,SSE,167,0.0,-999.0,93,-99.99,,,0.00,weatherlink.com 1.10,2013-09-11 08:09:00,
2013-09-11 04:24:00,69.3,67.0,30.07,SSE,167,0.0,-999.0,93,-99.99,,,0.00,weatherlink.com 1.10,2013-09-11 08:24:00,
2013-09-11 04:39:00,69.1,67.0,30.07,SSE,167,0.0,-999.0,93,-99.99,,,0.00,weatherlink.com 1.10,2013-09-11 08:39:00,
2013-09-11 04:54:00,68.9,67.0,30.07,SSE,167,0.0,-999.0,93,-99.99,,,0.00,weatherlink.com 1.10,2013-09-11 08:54:00,
2013-09-11 05:09:00,68.7,67.0,30.07,SSE,167,0.0,-999.0,93,-99.99,,,0.00,weatherlink.com 1.10,2013-09-11 09:09:00,
2013-09-11 05:24:00,68.5,67.0,30.07,SSE,167,0.0,-999.0,93,-99.99,,,0.00,weatherlink.com 1.10,2013-09-11 09:24:00,
2013-09-11 05:39:00,68.2,66.0,30.07,SSE,167,0.0,-999.0,93,-99.99,,,0.00,weatherlink.com 1.10,2013-09-11 09:39:00,
2013-09-11 05:54:00,68.1,66.0,30.08,SSE,167,0.0,-999.0,94,-99.99,,,0.00,weatherlink.com 1.10,2013-09-11 09:54:00,
2013-09-11 06:09:00,67.9,66.0,30.08,SSE,167,0.0,-999.0,93,-99.99,,,0.00,weatherlink.com 1.10,2013-09-11 10:09:00,
2013-09-11 06:24:00,67.8,66.0,30.08,SSE,167,0.0,-999.0,94,-99.99,,,0.00,weatherlink.com 1.10,2013-09-11 10:24:00,
2013-09-11 06:39:00,67.8,66.0,30.09,SSE,167,0.0,-999.0,94,-99.99,,,0.00,weatherlink.com 1.10,2013-09-11 10:39:00,
2013-09-11 06:54:00,67.6,66.0,30.09,SSE,167,0.0,-999.0,94,-99.99,,,0.00,weatherlink.com 1.10,2013-09-11 10:54:00,
2013-09-11 07:09:00,67.5,66.0,30.10,SSE,167,0.0,-999.0,94,-99.99,,,0.00,weatherlink.com 1.10,2013-09-11 11:09:00,
2013-09-11 07:24:00,67.6,66.0,30.10,SSE,167,0.0,-999.0,94,-99.99,,,0.00,weatherlink.com 1.10,2013-09-11 11:24:00,
2013-09-11 07:39:00,67.8,66.0,30.10,SSE,167,0.0,-999.0,94,-99.99,,,0.00,weatherlink.com 1.10,2013-09-11 11:39:00,
2013-09-11 07:54:00,68.1,67.0,30.11,SSE,167,0.0,-999.0,95,-99.99,,,0.00,weatherlink.com 1.10,2013-09-11 11:54:00,
2013-09-11 08:09:00,68.9,68.0,30.11,SSE,167,0.0,-999.0,95,-99.99,,,0.00,weatherlink.com 1.10,2013-09-11 12:09:00,
2013-09-11 08:24:00,70.1,69.0,30.11,SSE,167,0.0,-999.0,95,-99.99,,,0.00,weatherlink.com 1.10,2013-09-11 12:24:00,
2013-09-11 08:39:00,71.0,70.0,30.10,SSE,167,0.0,-999.0,96,-99.99,,,0.00,weatherlink.com 1.10,2013-09-11 12:39:00,
2013-09-11 08:54:00,72.2,71.0,30.10,SSE,167,0.0,-999.0,96,-99.99,,,0.00,weatherlink.com 1.10,2013-09-11 12:54:00,
2013-09-11 09:09:00,73.4,72.0,30.10,South,174,1.0,-999.0,96,-99.99,,,0.00,weatherlink.com 1.10,2013-09-11 13:09:00,
2013-09-11 09:24:00,74.7,73.0,30.10,NW,305,0.0,-999.0,95,-99.99,,,0.00,weatherlink.com 1.10,2013-09-11 13:24:00,
2013-09-11 09:39:00,75.7,74.0,30.10,South,190,0.0,-999.0,94,-99.99,,,0.00,weatherlink.com 1.10,2013-09-11 13:39:00,
2013-09-11 09:55:00,77.6,74.0,30.09,West,272,1.0,-999.0,89,-99.99,,,0.00,weatherlink.com 1.10,2013-09-11 13:55:00,
2013-09-11 10:10:00,79.3,75.0,30.09,WNW,283,0.0,-999.0,86,-99.99,,,0.00,weatherlink.com 1.10,2013-09-11 14:10:00,
2013-09-11 10:25:00,80.9,75.0,30.09,West,275,0.0,-999.0,83,-99.99,,,0.00,weatherlink.com 1.10,2013-09-11 14:25:00,
2013-09-11 10:40:00,82.6,76.0,30.08,SSW,213,0.0,-999.0,79,-99.99,,,0.00,weatherlink.com 1.10,2013-09-11 14:40:00,
2013-09-11 10:55:00,83.8,76.0,30.08,West,279,3.0,-999.0,76,-99.99,,,0.00,weatherlink.com 1.10,2013-09-11 14:55:00,
2013-09-11 11:10:00,85.0,76.0,30.07,WSW,257,0.0,-999.0,75,-99.99,,,0.00,weatherlink.com 1.10,2013-09-11 15:10:00,
2013-09-11 11:25:00,85.9,76.0,30.07,SW,215,0.0,-999.0,73,-99.99,,,0.00,weatherlink.com 1.10,2013-09-11 15:25:00,
2013-09-11 11:40:00,87.3,77.0,30.07,NW,308,3.0,-999.0,72,-99.99,,,0.00,weatherlink.com 1.10,2013-09-11 15:40:00,
2013-09-11 11:55:00,88.5,77.0,30.06,SSW,210,3.0,-999.0,68,-99.99,,,0.00,weatherlink.com 1.10,2013-09-11 15:55:00,
2013-09-11 12:10:00,89.1,77.0,30.05,SW,225,0.0,-999.0,68,-99.99,,,0.00,weatherlink.com 1.10,2013-09-11 16:10:00,
2013-09-11 12:25:00,89.9,78.0,30.05,West,279,2.0,-999.0,67,-99.99,,,0.00,weatherlink.com 1.10,2013-09-11 16:25:00,
2013-09-11 12:41:00,92.0,78.0,30.04,SW,232,1.0,-999.0,63,-99.99,,,0.00,weatherlink.com 1.10,2013-09-11 16:41:00,
2013-09-11 12:45:00,93.0,78.1,30.04,NNW,328,1.0,1.0,62,0.00,,,0.00,Wunderground v.1.15,2013-09-11 16:45:00,
2013-09-11 12:55:00,93.1,77.7,30.04,West,281,2.0,2.0,61,0.00,,,0.00,Wunderground v.1.15,2013-09-11 16:55:00,
2013-09-11 13:00:00,93.3,77.8,30.03,WSW,252,2.0,3.0,61,0.00,,,0.00,Wunderground v.1.15,2013-09-11 17:00:00,
2013-09-11 13:10:00,93.0,77.1,30.03,WSW,237,3.0,3.0,60,0.00,,,0.00,Wunderground v.1.15,2013-09-11 17:10:00,
2013-09-11 13:11:00,93.0,78.0,30.03,WSW,238,1.0,-999.0,62,-99.99,,,0.00,weatherlink.com 1.10,2013-09-11 17:11:00,
2013-09-11 13:15:00,92.9,77.5,30.03,South,187,2.0,3.0,61,0.00,,,0.00,Wunderground v.1.15,2013-09-11 17:15:00,
2013-09-11 13:20:00,92.5,76.6,30.03,West,269,3.0,5.0,60,0.00,,,0.00,Wunderground v.1.15,2013-09-11 17:20:00,
2013-09-11 13:27:00,92.2,77.0,30.02,West,261,1.0,-999.0,62,-99.99,,,0.00,weatherlink.com 1.10,2013-09-11 17:27:00,
2013-09-11 13:30:00,92.2,77.3,30.02,NNW,340,2.0,3.0,62,0.00,,,0.00,Wunderground v.1.15,2013-09-11 17:30:00,
2013-09-11 13:35:00,92.4,77.0,30.02,NW,321,3.0,3.0,61,0.00,,,0.00,Wunderground v.1.15,2013-09-11 17:35:00,
2013-09-11 13:41:00,92.8,78.0,30.01,WNW,303,3.0,-999.0,62,-99.99,,,0.00,weatherlink.com 1.10,2013-09-11 17:41:00,
2013-09-11 13:45:00,92.7,77.3,30.01,West,264,3.0,5.0,61,0.00,,,0.00,Wunderground v.1.15,2013-09-11 17:45:00,
2013-09-11 13:55:00,92.5,77.1,30.00,West,279,3.0,4.0,61,0.00,,,0.00,Wunderground v.1.15,2013-09-11 17:55:00,
2013-09-11 13:56:00,92.6,77.0,30.00,West,277,0.0,-999.0,61,-99.99,,,0.00,weatherlink.com 1.10,2013-09-11 17:56:00,
2013-09-11 14:00:00,92.8,76.4,30.00,WSW,238,2.0,2.0,59,0.00,,,0.00,Wunderground v.1.15,2013-09-11 18:00:00,
2013-09-11 14:10:00,93.0,76.6,30.00,WNW,287,3.0,4.0,59,0.00,,,0.00,Wunderground v.1.15,2013-09-11 18:10:00,
2013-09-11 14:12:00,93.2,76.0,30.00,SSW,193,4.0,-999.0,58,-99.99,,,0.00,weatherlink.com 1.10,2013-09-11 18:12:00,
2013-09-11 14:20:00,94.4,75.7,29.99,WSW,248,3.0,3.0,55,0.00,,,0.00,Wunderground v.1.15,2013-09-11 18:20:00,
2013-09-11 14:25:00,94.7,76.0,29.99,SW,217,4.0,4.0,55,0.00,,,0.00,Wunderground v.1.15,2013-09-11 18:25:00,
2013-09-11 14:26:00,94.8,76.0,29.98,South,172,5.0,-999.0,55,-99.99,,,0.00,weatherlink.com 1.10,2013-09-11 18:26:00,
2013-09-11 14:35:00,95.4,76.7,29.98,West,279,3.0,4.0,55,0.00,,,0.00,Wunderground v.1.15,2013-09-11 18:35:00,
2013-09-11 14:40:00,95.6,76.9,29.98,South,171,4.0,4.0,55,0.00,,,0.00,Wunderground v.1.15,2013-09-11 18:40:00,
2013-09-11 14:42:00,95.7,76.0,29.98,SW,226,1.0,-999.0,54,-99.99,,,0.00,weatherlink.com 1.10,2013-09-11 18:42:00,
2013-09-11 14:50:00,95.7,76.4,29.97,SW,234,3.0,6.0,54,0.00,,,0.00,Wunderground v.1.15,2013-09-11 18:50:00,
2013-09-11 14:57:00,95.8,77.0,29.97,SW,234,3.0,-999.0,54,-99.99,,,0.00,weatherlink.com 1.10,2013-09-11 18:57:00,
2013-09-11 15:05:00,95.8,76.5,29.97,SSW,201,3.0,3.0,54,0.00,,,0.00,Wunderground v.1.15,2013-09-11 19:05:00,
2013-09-11 15:12:00,95.7,76.0,29.96,SSW,192,3.0,-999.0,54,-99.99,,,0.00,weatherlink.com 1.10,2013-09-11 19:12:00,
2013-09-11 15:20:00,95.6,75.2,29.97,SSW,209,3.0,3.0,52,0.00,,,0.00,Wunderground v.1.15,2013-09-11 19:20:00,
2013-09-11 15:28:00,95.8,75.0,29.96,North,360,1.0,-999.0,51,-99.99,,,0.00,weatherlink.com 1.10,2013-09-11 19:28:00,
2013-09-11 15:35:00,96.2,75.7,29.95,South,188,2.0,3.0,52,0.00,,,0.00,Wunderground v.1.15,2013-09-11 19:35:00,
2013-09-11 15:40:00,96.8,75.7,29.95,SW,231,3.0,3.0,51,0.00,,,0.00,Wunderground v.1.15,2013-09-11 19:40:00,
2013-09-11 15:43:00,97.0,76.0,29.95,SW,227,5.0,-999.0,51,-99.99,,,0.00,weatherlink.com 1.10,2013-09-11 19:43:00,
2013-09-11 15:50:00,96.7,75.6,29.94,SSW,203,3.0,3.0,51,0.00,,,0.00,Wunderground v.1.15,2013-09-11 19:50:00,
2013-09-11 15:55:00,96.0,75.0,29.94,SW,219,2.0,3.0,51,0.00,,,0.00,Wunderground v.1.15,2013-09-11 19:55:00,
2013-09-11 15:58:00,95.4,75.0,29.94,SW,230,4.0,-999.0,51,-99.99,,,0.00,weatherlink.com 1.10,2013-09-11 19:58:00,
2013-09-11 16:05:00,94.5,74.7,29.94,SW,232,2.0,5.0,53,0.00,,,0.00,Wunderground v.1.15,2013-09-11 20:05:00,
2013-09-11 16:14:00,93.1,75.0,29.95,WSW,257,6.0,-999.0,55,-99.99,,,0.00,weatherlink.com 1.10,2013-09-11 20:14:00,
2013-09-11 16:20:00,92.4,75.0,29.96,WSW,245,2.0,2.0,57,0.00,,,0.00,Wunderground v.1.15,2013-09-11 20:20:00,
2013-09-11 16:28:00,91.8,75.0,29.97,WSW,245,1.0,-999.0,58,-99.99,,,0.00,weatherlink.com 1.10,2013-09-11 20:28:00,
2013-09-11 16:35:00,89.7,73.0,29.99,NW,325,3.0,3.0,58,0.00,,,0.00,Wunderground v.1.15,2013-09-11 20:35:00,
2013-09-11 16:43:00,84.3,71.0,29.99,WNW,291,8.0,-999.0,64,-99.99,,,0.00,weatherlink.com 1.10,2013-09-11 20:43:00,
2013-09-11 16:50:00,82.1,70.5,29.99,NW,304,6.0,7.0,68,0.00,,,0.00,Wunderground v.1.15,2013-09-11 20:50:00,
2013-09-11 16:55:00,81.2,69.6,29.98,West,268,4.0,5.0,68,0.00,,,0.00,Wunderground v.1.15,2013-09-11 20:55:00,
2013-09-11 16:58:00,80.8,70.0,29.98,WSW,240,5.0,-999.0,69,-99.99,,,0.00,weatherlink.com 1.10,2013-09-11 20:58:00,
2013-09-11 17:05:00,80.3,69.2,29.98,South,170,4.0,4.0,69,0.00,,,0.00,Wunderground v.1.15,2013-09-11 21:05:00,
2013-09-11 17:10:00,80.1,69.4,29.98,SW,227,3.0,3.0,70,0.00,,,0.00,Wunderground v.1.15,2013-09-11 21:10:00,
2013-09-11 17:14:00,79.6,69.0,29.98,West,263,4.0,-999.0,70,-99.99,,,0.00,weatherlink.com 1.10,2013-09-11 21:14:00,
2013-09-11 17:20:00,79.3,68.7,29.97,West,265,3.0,3.0,70,0.00,,,0.00,Wunderground v.1.15,2013-09-11 21:20:00,
2013-09-11 17:25:00,79.1,68.1,29.97,SW,232,2.0,3.0,69,0.00,,,0.00,Wunderground v.1.15,2013-09-11 21:25:00,
2013-09-11 17:29:00,79.1,69.0,29.98,SW,231,3.0,-999.0,70,-99.99,,,0.00,weatherlink.com 1.10,2013-09-11 21:29:00,
2013-09-11 17:35:00,79.2,68.6,29.98,SW,234,1.0,5.0,70,0.00,,,0.00,Wunderground v.1.15,2013-09-11 21:35:00,
2013-09-11 17:40:00,79.2,68.6,29.99,SW,234,1.0,5.0,70,0.00,,,0.00,Wunderground v.1.15,2013-09-11 21:40:00,
2013-09-11 17:45:00,79.2,68.0,30.00,SW,232,0.0,-999.0,68,-99.99,,,0.00,weatherlink.com 1.10,2013-09-11 21:45:00,
2013-09-11 17:50:00,79.2,67.7,30.00,WSW,241,2.0,5.0,68,0.00,,,0.00,Wunderground v.1.15,2013-09-11 21:50:00,
2013-09-11 17:59:00,79.2,68.0,30.00,SW,234,2.0,-999.0,69,-99.99,,,0.00,weatherlink.com 1.10,2013-09-11 21:59:00,
2013-09-11 18:00:00,79.2,68.1,30.00,SW,234,2.0,5.0,69,0.00,,,0.00,Wunderground v.1.15,2013-09-11 22:00:00,
2013-09-11 18:05:00,79.1,68.5,30.01,WNW,285,1.0,5.0,70,0.00,,,0.00,Wunderground v.1.15,2013-09-11 22:05:00,
2013-09-11 18:10:00,78.7,68.1,30.01,NW,321,1.0,5.0,70,0.00,,,0.00,Wunderground v.1.15,2013-09-11 22:10:00,
2013-09-11 18:14:00,78.5,69.0,30.02,WNW,290,5.0,-999.0,72,-99.99,,,0.00,weatherlink.com 1.10,2013-09-11 22:14:00,
2013-09-11 18:20:00,78.3,68.9,30.02,WSW,255,2.0,2.0,73,0.00,,,0.00,Wunderground v.1.15,2013-09-11 22:20:00,
2013-09-11 18:30:00,78.2,69.2,30.02,NW,311,1.0,5.0,74,0.00,,,0.00,Wunderground v.1.15,2013-09-11 22:30:00,
2013-09-11 18:31:00,78.2,69.0,30.02,NW,311,1.0,-999.0,74,-99.99,,,0.00,weatherlink.com 1.10,2013-09-11 22:31:00,
2013-09-11 18:40:00,78.0,70.2,30.01,NNW,331,1.0,1.0,77,0.00,,,0.00,Wunderground v.1.15,2013-09-11 22:40:00,
2013-09-11 18:45:00,77.8,70.0,30.01,NNW,331,1.0,5.0,77,0.00,,,0.00,Wunderground v.1.15,2013-09-11 22:45:00,
2013-09-11 18:46:00,77.8,70.0,30.01,NNW,331,0.0,-999.0,77,-99.99,,,0.00,weatherlink.com 1.10,2013-09-11 22:46:00,
2013-09-11 18:55:00,77.7,70.3,30.00,NNW,331,0.0,5.0,78,0.00,,,0.00,Wunderground v.1.15,2013-09-11 22:55:00,
2013-09-11 19:01:00,77.3,70.0,30.00,NNW,331,1.0,-999.0,79,-99.99,,,0.00,weatherlink.com 1.10,2013-09-11 23:01:00,
2013-09-11 19:05:00,76.9,70.3,30.01,NNW,330,1.0,5.0,80,0.00,,,0.00,Wunderground v.1.15,2013-09-11 23:05:00,
2013-09-11 19:10:00,76.6,70.3,30.03,WNW,295,1.0,5.0,81,0.00,,,0.00,Wunderground v.1.15,2013-09-11 23:10:00,
2013-09-11 19:15:00,76.1,70.2,30.04,WSW,254,1.0,5.0,82,0.00,,,0.00,Wunderground v.1.15,2013-09-11 23:15:00,
2013-09-11 19:20:00,75.8,70.3,30.03,WSW,254,1.0,1.0,83,0.00,,,0.00,Wunderground v.1.15,2013-09-11 23:20:00,
2013-09-11 19:30:00,75.4,70.2,30.01,WSW,254,0.0,5.0,84,0.00,,,0.01,Wunderground v.1.15,2013-09-11 23:30:00,
2013-09-11 19:35:00,75.1,70.3,30.02,NE,55,0.0,5.0,85,0.10,,,0.02,Wunderground v.1.15,2013-09-11 23:35:00,
2013-09-11 19:40:00,74.6,69.8,30.00,SE,142,0.0,5.0,85,0.10,,,0.02,Wunderground v.1.15,2013-09-11 23:40:00,
2013-09-11 19:45:00,74.2,70.0,29.99,NNE,21,0.0,-999.0,86,-99.99,,,0.02,weatherlink.com 1.10,2013-09-11 23:45:00,
2013-09-11 19:50:00,73.9,69.4,29.99,ENE,63,1.0,1.0,86,0.04,,,0.02,Wunderground v.1.15,2013-09-11 23:50:00,
2013-09-11 19:55:00,73.8,69.7,29.99,ENE,63,1.0,5.0,87,0.00,,,0.02,Wunderground v.1.15,2013-09-11 23:55:00,
2013-09-11 20:01:00,73.7,70.0,29.99,NE,42,0.0,-999.0,88,-99.99,,,0.02,weatherlink.com 1.10,2013-09-12 00:01:00,
2013-09-11 20:10:00,73.5,69.7,29.99,NE,44,0.0,5.0,88,0.00,,,0.02,Wunderground v.1.15,2013-09-12 00:10:00,
2013-09-11 20:15:00,73.3,69.5,29.99,ENE,59,0.0,5.0,88,0.00,,,0.02,Wunderground v.1.15,2013-09-12 00:15:00,
2013-09-11 20:16:00,73.3,70.0,29.99,ENE,59,0.0,-999.0,88,-99.99,,,0.02,weatherlink.com 1.10,2013-09-12 00:16:00,
2013-09-11 20:25:00,73.0,69.6,30.00,NE,54,0.0,5.0,89,0.00,,,0.02,Wunderground v.1.15,2013-09-12 00:25:00,
2013-09-11 20:31:00,73.0,70.0,30.00,NE,54,0.0,-999.0,89,-99.99,,,0.02,weatherlink.com 1.10,2013-09-12 00:31:00,
2013-09-11 20:40:00,72.8,69.7,30.02,NE,54,0.0,5.0,90,0.00,,,0.02,Wunderground v.1.15,2013-09-12 00:40:00,
2013-09-11 20:45:00,72.8,69.7,30.02,NE,54,0.0,5.0,90,0.00,,,0.02,Wunderground v.1.15,2013-09-12 00:45:00,
2013-09-11 20:46:00,72.8,70.0,30.02,NE,54,0.0,-999.0,90,-99.99,,,0.02,weatherlink.com 1.10,2013-09-12 00:46:00,
2013-09-11 20:55:00,72.8,69.7,30.02,NE,54,0.0,5.0,90,0.00,,,0.02,Wunderground v.1.15,2013-09-12 00:55:00,
2013-09-11 21:00:00,72.8,69.7,30.02,NE,54,0.0,5.0,90,0.00,,,0.02,Wunderground v.1.15,2013-09-12 01:00:00,
2013-09-11 21:01:00,72.8,70.0,30.02,NE,54,0.0,-999.0,90,-99.99,,,0.02,weatherlink.com 1.10,2013-09-12 01:01:00,
2013-09-11 21:10:00,72.7,69.6,30.03,NE,54,0.0,5.0,90,0.00,,,0.02,Wunderground v.1.15,2013-09-12 01:10:00,
2013-09-11 21:17:00,72.5,70.0,30.02,NE,54,0.0,-999.0,90,-99.99,,,0.03,weatherlink.com 1.10,2013-09-12 01:17:00,
2013-09-11 21:25:00,72.5,69.7,30.01,NE,54,0.0,5.0,91,0.00,,,0.03,Wunderground v.1.15,2013-09-12 01:25:00,
2013-09-11 21:31:00,72.5,70.0,30.01,NE,54,0.0,-999.0,91,-99.99,,,0.03,weatherlink.com 1.10,2013-09-12 01:31:00,
2013-09-11 21:40:00,72.3,69.5,30.01,NE,54,0.0,5.0,91,0.00,,,0.03,Wunderground v.1.15,2013-09-12 01:40:00,
2013-09-11 21:47:00,72.2,70.0,30.01,NE,54,0.0,-999.0,91,-99.99,,,0.03,weatherlink.com 1.10,2013-09-12 01:47:00,
2013-09-11 21:55:00,72.0,69.5,30.01,NE,54,0.0,5.0,92,0.00,,,0.03,Wunderground v.1.15,2013-09-12 01:55:00,
2013-09-11 22:02:00,71.9,69.0,30.00,NE,54,0.0,-999.0,91,-99.99,,,0.03,weatherlink.com 1.10,2013-09-12 02:02:00,
2013-09-11 22:17:00,71.7,69.0,30.00,NE,54,0.0,-999.0,92,-99.99,,,0.03,weatherlink.com 1.10,2013-09-12 02:17:00,
2013-09-11 22:32:00,71.6,69.0,30.00,NE,54,0.0,-999.0,92,-99.99,,,0.03,weatherlink.com 1.10,2013-09-12 02:32:00,
2013-09-11 22:47:00,71.4,69.0,30.00,NE,54,0.0,-999.0,93,-99.99,,,0.03,weatherlink.com 1.10,2013-09-12 02:47:00,
2013-09-11 23:02:00,71.2,69.0,29.99,NE,54,0.0,-999.0,92,-99.99,,,0.03,weatherlink.com 1.10,2013-09-12 03:02:00,
2013-09-11 23:17:00,70.9,69.0,29.99,NE,54,0.0,-999.0,93,-99.99,,,0.03,weatherlink.com 1.10,2013-09-12 03:17:00,
2013-09-11 23:32:00,70.7,69.0,29.99,NE,54,0.0,-999.0,93,-99.99,,,0.03,weatherlink.com 1.10,2013-09-12 03:32:00,
2013-09-11 23:47:00,70.7,69.0,29.98,NE,53,0.0,-999.0,93,-99.99,,,0.03,weatherlink.com 1.10,2013-09-12 03:47:00,